createdAt,value
2023-05-21T00:02:24.079Z,24.00
2023-05-21T00:04:56.201Z,24.38
2023-05-21T00:07:28.341Z,22.65
2023-05-21T00:10:00.619Z,24.02
2023-05-21T00:12:33.452Z,24.17
2023-05-21T00:15:05.811Z,24.00
2023-05-21T00:17:38.363Z,23.52
2023-05-21T00:20:10.756Z,23.58
2023-05-21T00:22:42.773Z,23.85
2023-05-21T00:25:16.729Z,24.40
2023-05-21T00:27:49.489Z,24.45
2023-05-21T00:30:21.569Z,24.33
2023-05-21T00:32:53.627Z,25.27
2023-05-21T00:35:29.542Z,24.52
2023-05-21T00:38:01.972Z,23.63
2023-05-21T00:40:37.431Z,25.27
2023-05-21T00:43:14.365Z,23.67
2023-05-21T00:45:48.796Z,25.13
2023-05-21T00:48:21.082Z,25.73
2023-05-21T00:50:53.460Z,25.30
2023-05-21T00:53:25.935Z,25.75
2023-05-21T00:55:58.097Z,24.50
2023-05-21T00:58:31.184Z,25.42
2023-05-21T01:01:04.020Z,25.00
2023-05-21T01:03:39.052Z,25.52
2023-05-21T01:06:16.188Z,24.63
2023-05-21T01:08:48.663Z,27.13
2023-05-21T01:11:22.496Z,26.63
2023-05-21T01:13:54.836Z,24.95
2023-05-21T01:16:26.906Z,26.83
2023-05-21T01:18:59.884Z,26.25
2023-05-21T01:21:37.628Z,25.65
2023-05-21T01:24:11.787Z,26.00
2023-05-21T01:26:44.475Z,25.73
2023-05-21T01:29:18.525Z,25.85
2023-05-21T01:34:40.050Z,25.63
2023-05-21T01:37:30.216Z,26.02
2023-05-21T01:40:12.431Z,26.33
2023-05-21T01:42:47.687Z,25.42
2023-05-21T01:45:22.573Z,25.38
2023-05-21T01:47:56.873Z,26.10
2023-05-21T01:50:30.127Z,25.15
2023-05-21T01:53:03.984Z,26.33
2023-05-21T01:55:39.671Z,26.17
2023-05-21T01:58:12.145Z,25.83
2023-05-21T02:00:45.488Z,26.38
2023-05-21T02:03:19.667Z,26.33
2023-05-21T02:05:52.236Z,26.23
2023-05-21T02:08:25.739Z,27.67
2023-05-21T02:10:57.802Z,27.30
2023-05-21T02:13:30.868Z,25.27
2023-05-21T02:16:02.805Z,25.92
2023-05-21T02:18:36.597Z,27.35
2023-05-21T02:21:08.557Z,27.88
2023-05-21T02:23:42.407Z,27.35
2023-05-21T02:26:14.493Z,30.40
2023-05-21T02:28:46.560Z,27.13
2023-05-21T02:31:18.541Z,27.55
2023-05-21T02:33:51.061Z,28.77
2023-05-21T02:36:25.545Z,27.38
2023-05-21T02:38:57.955Z,27.17
2023-05-21T02:41:30.021Z,27.13
2023-05-21T02:44:02.079Z,27.33
2023-05-21T02:46:34.121Z,27.25
2023-05-21T02:49:06.460Z,26.42
2023-05-21T02:51:38.459Z,27.27
2023-05-21T02:54:13.447Z,26.85
2023-05-21T02:56:48.506Z,26.70
2023-05-21T02:59:20.566Z,28.30
2023-05-21T03:01:53.907Z,28.40
2023-05-21T03:04:28.399Z,28.17
2023-05-21T03:07:02.310Z,26.35
2023-05-21T03:09:34.334Z,28.40
2023-05-21T03:12:09.829Z,28.05
2023-05-21T03:14:46.629Z,27.40
2023-05-21T03:17:19.305Z,27.10
2023-05-21T03:19:52.279Z,27.88
2023-05-21T03:22:24.230Z,27.20
2023-05-21T03:24:56.558Z,28.20
2023-05-21T03:27:28.986Z,28.40
2023-05-21T03:30:01.362Z,28.88
2023-05-21T03:32:38.180Z,27.00
2023-05-21T03:35:11.299Z,26.83
2023-05-21T03:37:43.271Z,26.23
2023-05-21T03:40:18.122Z,25.63
2023-05-21T03:42:50.046Z,28.33
2023-05-21T03:45:22.403Z,27.38
2023-05-21T03:48:20.168Z,27.50
2023-05-21T03:50:52.342Z,27.30
2023-05-21T03:53:24.772Z,26.98
2023-05-21T03:55:56.889Z,29.63
2023-05-21T03:58:30.937Z,27.42
2023-05-21T04:01:05.023Z,27.25
2023-05-21T04:03:40.086Z,27.25
2023-05-21T04:06:13.447Z,26.75
2023-05-21T04:08:45.644Z,26.80
2023-05-21T04:11:17.922Z,26.30
2023-05-21T04:13:50.591Z,27.38
2023-05-21T04:16:24.726Z,27.27
2023-05-21T04:18:57.778Z,28.25
2023-05-21T04:21:32.559Z,26.88
2023-05-21T04:24:04.627Z,26.88
2023-05-21T04:26:56.236Z,27.23
2023-05-21T04:29:30.143Z,26.92
2023-05-21T04:32:02.679Z,27.20
2023-05-21T04:34:34.849Z,28.10
2023-05-21T04:37:07.142Z,27.38
2023-05-21T04:39:41.259Z,27.23
2023-05-21T04:42:14.270Z,26.58
2023-05-21T04:44:46.734Z,27.85
2023-05-21T04:47:19.567Z,26.70
2023-05-21T04:49:53.561Z,26.40
2023-05-21T04:52:27.081Z,25.48
2023-05-21T04:54:59.307Z,24.85
2023-05-21T04:57:31.536Z,24.80
2023-05-21T05:00:05.845Z,24.00
2023-05-21T05:02:43.496Z,23.95
2023-05-21T05:05:18.248Z,25.48
2023-05-21T05:07:50.144Z,25.30
2023-05-21T05:10:22.350Z,22.60
2023-05-21T05:12:55.181Z,24.20
2023-05-21T05:15:27.277Z,22.73
2023-05-21T05:17:59.697Z,21.58
2023-05-21T05:20:34.182Z,22.05
2023-05-21T05:23:06.322Z,21.77
2023-05-21T05:25:38.727Z,22.15
2023-05-21T05:28:10.980Z,22.27
2023-05-21T05:30:42.813Z,23.25
2023-05-21T05:33:24.662Z,21.85
2023-05-21T05:35:56.668Z,22.20
2023-05-21T05:38:28.794Z,21.63
2023-05-21T05:41:04.178Z,21.70
2023-05-21T05:43:36.620Z,21.63
2023-05-21T05:46:09.360Z,22.23
2023-05-21T05:48:41.762Z,17.98
2023-05-21T05:51:15.481Z,19.02
2023-05-21T05:53:48.204Z,17.70
2023-05-21T05:56:23.076Z,18.90
2023-05-21T05:58:55.303Z,14.70
2023-05-21T06:01:27.257Z,19.42
2023-05-21T06:03:59.580Z,18.45
2023-05-21T06:06:36.869Z,18.08
2023-05-21T06:09:08.851Z,17.40
2023-05-21T06:11:40.770Z,18.33
2023-05-21T06:14:15.616Z,18.48
2023-05-21T06:16:47.804Z,18.70
2023-05-21T06:19:22.779Z,18.73
2023-05-21T06:21:54.951Z,17.92
2023-05-21T06:24:27.212Z,17.98
2023-05-21T06:26:59.599Z,17.58
2023-05-21T06:29:31.859Z,18.15
2023-05-21T06:32:09.191Z,17.60
2023-05-21T06:34:41.482Z,17.17
2023-05-21T06:37:13.594Z,17.77
2023-05-21T06:39:46.104Z,16.25
2023-05-21T06:42:18.370Z,16.95
2023-05-21T06:45:19.708Z,16.75
2023-05-21T06:47:52.135Z,15.15
2023-05-21T06:50:24.176Z,14.88
2023-05-21T06:52:56.334Z,15.85
2023-05-21T06:55:28.361Z,15.40
2023-05-21T06:58:18.974Z,15.70
2023-05-21T07:00:52.239Z,15.53
2023-05-21T07:03:25.912Z,14.95
2023-05-21T07:05:58.909Z,15.05
2023-05-21T07:08:30.899Z,14.20
2023-05-21T07:11:04.284Z,14.80
2023-05-21T07:13:38.230Z,15.07
2023-05-21T07:16:14.041Z,16.53
2023-05-21T07:18:47.609Z,14.70
2023-05-21T07:21:20.154Z,15.35
2023-05-21T07:23:53.634Z,15.45
2023-05-21T07:26:26.705Z,14.27
2023-05-21T07:32:31.919Z,14.77
2023-05-21T07:35:09.686Z,15.27
2023-05-21T07:37:42.661Z,14.70
2023-05-21T07:40:15.162Z,14.88
2023-05-21T07:42:48.294Z,14.23
2023-05-21T07:45:24.297Z,13.60
2023-05-21T07:47:59.378Z,14.70
2023-05-21T07:50:32.847Z,14.77
2023-05-21T07:53:05.613Z,13.77
2023-05-21T07:55:38.559Z,13.65
2023-05-21T07:58:13.965Z,15.05
2023-05-21T08:00:47.963Z,14.27
2023-05-21T08:03:20.805Z,14.77
2023-05-21T08:05:54.678Z,13.88
2023-05-21T08:08:27.241Z,13.38
2023-05-21T08:13:34.920Z,13.68
2023-05-21T08:16:08.779Z,14.55
2023-05-21T08:18:41.577Z,12.55
2023-05-21T08:21:13.526Z,15.13
2023-05-21T08:23:49.962Z,14.23
2023-05-21T08:26:22.011Z,14.90
2023-05-21T08:28:53.964Z,12.73
2023-05-21T08:31:26.428Z,13.63
2023-05-21T08:34:00.742Z,14.85
2023-05-21T08:36:50.168Z,13.25
2023-05-21T08:39:48.109Z,12.73
2023-05-21T08:42:45.608Z,13.35
2023-05-21T08:45:23.570Z,14.52
2023-05-21T08:47:57.600Z,14.00
2023-05-21T08:50:32.806Z,13.77
2023-05-21T08:53:19.883Z,13.70
2023-05-21T08:56:01.971Z,13.75
2023-05-21T08:58:53.050Z,13.45
2023-05-21T09:01:28.405Z,13.90
2023-05-21T09:06:52.069Z,12.75
2023-05-21T09:09:47.121Z,13.82
2023-05-21T09:12:19.665Z,14.23
2023-05-21T09:14:55.810Z,13.05
2023-05-21T09:17:33.600Z,12.77
2023-05-21T09:20:18.204Z,11.93
2023-05-21T09:23:05.436Z,12.45
2023-05-21T09:28:16.626Z,12.10
2023-05-21T09:30:54.736Z,11.00
2023-05-21T09:33:29.849Z,12.27
2023-05-21T09:36:02.611Z,11.90
2023-05-21T09:38:37.994Z,11.55
2023-05-21T09:41:11.374Z,10.90
2023-05-21T09:43:45.082Z,10.93
2023-05-21T09:46:40.854Z,11.52
2023-05-21T09:49:25.038Z,11.55
2023-05-21T09:54:35.034Z,10.77
2023-05-21T09:57:06.917Z,10.85
2023-05-21T09:59:39.765Z,11.60
2023-05-21T10:02:24.730Z,11.32
2023-05-21T10:04:57.507Z,9.95
2023-05-21T10:07:29.785Z,11.02
2023-05-21T10:10:14.804Z,9.95
2023-05-21T10:12:51.164Z,9.80
2023-05-21T10:15:25.131Z,9.52
2023-05-21T10:20:30.049Z,9.65
2023-05-21T10:23:03.426Z,10.50
2023-05-21T10:26:03.868Z,9.57
2023-05-21T10:28:37.892Z,9.48
2023-05-21T10:31:10.733Z,9.57
2023-05-21T10:33:43.615Z,9.25
2023-05-21T10:36:18.966Z,9.95
2023-05-21T10:38:51.424Z,9.48
2023-05-21T10:41:26.882Z,9.73
2023-05-21T10:44:20.535Z,9.45
2023-05-21T10:47:18.709Z,9.55
2023-05-21T10:50:11.374Z,9.40
2023-05-21T10:55:32.570Z,8.63
2023-05-21T10:58:29.903Z,9.27
2023-05-21T11:01:06.129Z,9.27
2023-05-21T11:03:38.344Z,9.18
2023-05-21T11:06:22.611Z,9.30
2023-05-21T11:08:55.704Z,9.23
2023-05-21T11:11:51.355Z,8.80
2023-05-21T11:14:37.020Z,9.45
2023-05-21T11:17:14.933Z,8.70
2023-05-21T11:19:51.535Z,8.98
2023-05-21T11:22:25.340Z,9.52
2023-05-21T11:25:01.984Z,8.48
2023-05-21T11:27:36.814Z,9.02
2023-05-21T11:30:10.805Z,8.38
